createdAt,value
2022-10-09T03:59:07.661Z,0.00
2022-10-09T04:00:06.997Z,0.00
2022-10-09T04:01:06.037Z,0.00
2022-10-09T04:02:07.625Z,0.00
2022-10-09T04:03:07.052Z,0.00
2022-10-09T04:04:06.971Z,0.00
2022-10-09T04:05:07.612Z,0.00
2022-10-09T04:06:06.964Z,0.00
2022-10-09T04:07:05.965Z,0.00
2022-10-09T04:08:06.951Z,0.00
2022-10-09T04:09:07.115Z,0.00
2022-10-09T04:10:06.954Z,0.00
2022-10-09T04:11:07.618Z,0.00
2022-10-09T04:12:05.928Z,0.00
2022-10-09T04:13:06.935Z,0.00
2022-10-09T04:14:07.630Z,0.00
2022-10-09T04:15:07.142Z,0.00
2022-10-09T04:16:07.666Z,0.00
2022-10-09T04:17:07.617Z,0.00
2022-10-09T04:18:07.646Z,0.00
2022-10-09T04:19:07.615Z,0.00
2022-10-09T04:20:07.623Z,0.00
2022-10-09T04:21:05.901Z,0.00
2022-10-09T04:22:07.631Z,0.00
2022-10-09T04:23:07.631Z,0.00
2022-10-09T04:24:07.619Z,0.00
2022-10-09T04:25:07.618Z,0.00
2022-10-09T04:26:05.871Z,0.00
2022-10-09T04:27:07.635Z,0.00
2022-10-09T04:28:07.654Z,0.00
2022-10-09T04:29:05.870Z,0.00
2022-10-09T04:30:05.866Z,0.00
2022-10-09T04:31:07.203Z,0.00
2022-10-09T04:32:05.928Z,0.00
2022-10-09T04:33:09.153Z,0.00
2022-10-09T04:34:05.846Z,0.00
2022-10-09T04:35:07.150Z,0.00
2022-10-09T04:36:05.847Z,0.00
2022-10-09T04:37:07.636Z,0.00
2022-10-09T04:38:05.832Z,0.00
2022-10-09T04:39:05.837Z,0.00
2022-10-09T04:40:05.835Z,0.00
2022-10-09T04:41:05.825Z,0.00
2022-10-09T04:42:07.654Z,0.00
2022-10-09T04:43:05.849Z,0.00
2022-10-09T04:44:07.650Z,0.00
2022-10-09T04:45:05.820Z,0.00
2022-10-09T04:46:05.903Z,0.00
2022-10-09T04:47:10.545Z,0.00
2022-10-09T04:48:07.681Z,0.00
2022-10-09T04:49:07.663Z,0.00
2022-10-09T04:50:07.637Z,0.00
2022-10-09T04:51:07.177Z,0.00
2022-10-09T04:52:07.644Z,0.00
2022-10-09T04:53:07.653Z,0.00
2022-10-09T04:54:07.667Z,0.00
2022-10-09T04:55:07.642Z,0.00
2022-10-09T04:56:07.660Z,0.00
2022-10-09T04:57:07.645Z,0.00
2022-10-09T04:58:07.645Z,0.00
2022-10-09T04:59:07.659Z,0.00
2022-10-09T05:00:07.647Z,0.00
2022-10-09T05:01:07.779Z,0.00
2022-10-09T05:02:07.752Z,0.00
2022-10-09T05:03:07.659Z,0.00
2022-10-09T05:04:07.652Z,0.00
2022-10-09T05:05:07.654Z,0.00
2022-10-09T05:06:05.740Z,0.00
2022-10-09T05:07:07.664Z,0.00
2022-10-09T05:08:05.762Z,0.00
2022-10-09T05:09:05.745Z,0.00
2022-10-09T05:10:05.744Z,0.00
2022-10-09T05:11:07.680Z,0.00
2022-10-09T05:12:05.731Z,0.00
2022-10-09T05:13:05.722Z,0.00
2022-10-09T05:14:05.723Z,4.00
2022-10-09T05:15:05.734Z,0.00
2022-10-09T05:16:07.239Z,0.00
2022-10-09T05:17:15.287Z,4.00
2022-10-09T05:18:05.709Z,0.00
2022-10-09T05:19:05.721Z,4.00
2022-10-09T05:20:07.670Z,4.00
2022-10-09T05:21:05.697Z,8.00
2022-10-09T05:22:07.708Z,8.00
2022-10-09T05:23:06.704Z,4.00
2022-10-09T05:24:10.248Z,8.00
2022-10-09T05:25:05.685Z,8.00
2022-10-09T05:26:05.678Z,12.00
2022-10-09T05:27:07.181Z,12.00
2022-10-09T05:28:06.729Z,16.00
2022-10-09T05:29:07.681Z,16.00
2022-10-09T05:30:06.677Z,20.00
2022-10-09T05:31:07.179Z,24.00
2022-10-09T05:32:07.238Z,24.00
2022-10-09T05:33:07.189Z,32.00
2022-10-09T05:34:06.666Z,36.00
2022-10-09T05:35:07.193Z,40.00
2022-10-09T05:36:07.174Z,44.00
2022-10-09T05:37:07.195Z,48.00
2022-10-09T05:38:07.196Z,56.00
2022-10-09T05:39:07.189Z,60.00
2022-10-09T05:40:07.197Z,68.00
2022-10-09T05:41:05.646Z,72.00
2022-10-09T05:42:07.194Z,80.00
2022-10-09T05:43:05.638Z,84.00
2022-10-09T05:44:06.650Z,96.00
2022-10-09T05:45:06.697Z,104.00
2022-10-09T05:46:06.712Z,112.00
2022-10-09T05:47:07.197Z,120.00
2022-10-09T05:48:05.616Z,132.00
2022-10-09T05:49:05.632Z,140.00
2022-10-09T05:50:07.192Z,148.00
2022-10-09T05:51:07.229Z,160.00
2022-10-09T05:52:07.190Z,172.00
2022-10-09T05:53:07.215Z,184.00
2022-10-09T05:54:07.194Z,192.00
2022-10-09T05:55:07.194Z,204.00
2022-10-09T05:56:05.587Z,216.00
2022-10-09T05:57:07.207Z,228.00
2022-10-09T05:58:07.209Z,236.00
2022-10-09T05:59:05.579Z,248.00
2022-10-09T06:00:07.199Z,264.00
2022-10-09T06:01:05.649Z,276.00
2022-10-09T06:02:07.255Z,288.00
2022-10-09T06:03:07.197Z,300.00
2022-10-09T06:04:07.200Z,312.00
2022-10-09T06:05:07.199Z,324.00
2022-10-09T06:06:07.234Z,332.00
2022-10-09T06:07:07.236Z,344.00
2022-10-09T06:08:07.202Z,352.00
2022-10-09T06:09:07.203Z,364.00
2022-10-09T06:10:07.202Z,376.00
2022-10-09T06:11:07.207Z,384.00
2022-10-09T06:12:07.217Z,392.00
2022-10-09T06:13:07.220Z,404.00
2022-10-09T06:14:07.206Z,408.00
2022-10-09T06:15:06.721Z,416.00
2022-10-09T06:16:05.530Z,424.00
2022-10-09T06:17:07.251Z,432.00
2022-10-09T06:18:05.525Z,444.00
2022-10-09T06:19:05.511Z,460.00
2022-10-09T06:20:05.541Z,472.00
2022-10-09T06:21:05.508Z,480.00
2022-10-09T06:22:07.229Z,488.00
2022-10-09T06:23:07.240Z,496.00
2022-10-09T06:24:07.217Z,504.00
2022-10-09T06:25:07.226Z,516.00
2022-10-09T06:26:07.247Z,524.00
2022-10-09T06:27:07.221Z,532.00
2022-10-09T06:28:07.286Z,540.00
2022-10-09T06:29:07.233Z,548.00
2022-10-09T06:30:07.487Z,560.00
2022-10-09T06:31:07.269Z,576.00
2022-10-09T06:32:07.226Z,584.00
2022-10-09T06:33:07.226Z,596.00
2022-10-09T06:34:06.734Z,640.00
2022-10-09T06:35:05.471Z,788.00
2022-10-09T06:36:10.216Z,1032.00
2022-10-09T06:37:05.463Z,1236.00
2022-10-09T06:38:05.461Z,1316.00
2022-10-09T06:39:05.484Z,1312.00
2022-10-09T06:40:05.475Z,1364.00
2022-10-09T06:41:07.254Z,1452.00
2022-10-09T06:42:05.468Z,1500.00
2022-10-09T06:43:05.474Z,1496.00
2022-10-09T06:44:05.444Z,1500.00
2022-10-09T06:45:05.437Z,1536.00
2022-10-09T06:46:05.506Z,1564.00
2022-10-09T06:47:07.250Z,1560.00
2022-10-09T06:48:05.435Z,1484.00
2022-10-09T06:49:05.431Z,1496.00
2022-10-09T06:50:05.436Z,1584.00
2022-10-09T06:51:05.442Z,1612.00
2022-10-09T06:52:07.250Z,1636.00
2022-10-09T06:53:05.438Z,1580.00
2022-10-09T06:54:07.250Z,1372.00
2022-10-09T06:55:06.409Z,1216.00
2022-10-09T06:56:07.253Z,1092.00
2022-10-09T06:57:05.414Z,976.00
2022-10-09T06:58:07.243Z,944.00
2022-10-09T06:59:06.410Z,932.00
2022-10-09T07:00:07.274Z,928.00
2022-10-09T07:01:06.423Z,960.00
2022-10-09T07:02:07.314Z,1060.00
2022-10-09T07:03:06.459Z,1116.00
2022-10-09T07:04:07.345Z,1032.00
2022-10-09T07:05:05.385Z,952.00
2022-10-09T07:06:07.254Z,932.00
2022-10-09T07:07:07.280Z,1004.00
2022-10-09T07:08:07.257Z,1128.00
2022-10-09T07:09:07.262Z,1316.00
2022-10-09T07:10:07.266Z,1440.00
2022-10-09T07:11:07.260Z,1392.00
2022-10-09T07:12:07.270Z,1344.00
2022-10-09T07:13:05.370Z,1436.00
2022-10-09T07:14:07.284Z,1612.00
2022-10-09T07:15:05.367Z,1936.00
2022-10-09T07:16:05.439Z,2224.00
2022-10-09T07:17:05.366Z,2324.00
2022-10-09T07:18:07.277Z,2284.00
2022-10-09T07:19:06.408Z,2372.00
2022-10-09T07:20:06.375Z,2436.00
2022-10-09T07:21:06.776Z,2388.00
2022-10-09T07:22:07.287Z,2280.00
2022-10-09T07:23:06.346Z,2316.00
2022-10-09T07:24:05.334Z,2432.00
2022-10-09T07:25:07.293Z,2448.00
2022-10-09T07:26:07.288Z,2532.00
2022-10-09T07:27:07.285Z,2592.00
2022-10-09T07:28:07.307Z,2624.00
2022-10-09T07:29:07.332Z,2612.00
2022-10-09T07:30:07.297Z,2620.00
2022-10-09T07:31:06.835Z,2660.00
2022-10-09T07:32:10.456Z,2688.00
2022-10-09T07:33:07.308Z,2696.00
2022-10-09T07:34:07.289Z,2616.00
2022-10-09T07:35:07.273Z,2680.00
2022-10-09T07:36:07.274Z,2680.00
2022-10-09T07:37:07.270Z,2676.00
2022-10-09T07:38:06.314Z,2700.00
2022-10-09T07:39:07.299Z,2672.00
2022-10-09T07:40:07.287Z,2660.00
2022-10-09T07:41:07.278Z,2648.00
2022-10-09T07:42:07.405Z,2652.00
2022-10-09T07:43:07.286Z,2664.00
2022-10-09T07:44:06.832Z,2664.00
2022-10-09T07:45:06.790Z,2656.00
2022-10-09T07:46:06.827Z,2708.00
2022-10-09T07:47:06.791Z,2744.00
2022-10-09T07:48:06.786Z,2716.00
2022-10-09T07:49:06.808Z,2708.00
2022-10-09T07:50:06.791Z,2720.00
2022-10-09T07:51:06.793Z,2708.00
2022-10-09T07:52:05.286Z,2572.00
2022-10-09T07:53:05.286Z,2496.00
2022-10-09T07:54:06.826Z,2440.00
2022-10-09T07:55:05.285Z,2536.00
2022-10-09T07:56:07.301Z,2652.00
2022-10-09T07:57:06.799Z,2724.00
2022-10-09T07:58:06.850Z,2720.00
2022-10-09T07:59:06.807Z,2688.00
2022-10-09T08:00:06.265Z,2648.00
2022-10-09T08:01:06.878Z,2676.00
2022-10-09T08:02:06.896Z,2736.00
2022-10-09T08:03:06.858Z,2764.00
2022-10-09T08:04:06.828Z,2760.00
2022-10-09T08:05:06.260Z,2764.00
2022-10-09T08:06:06.264Z,2780.00
2022-10-09T08:07:06.825Z,2816.00
2022-10-09T08:08:06.809Z,2928.00
2022-10-09T08:09:06.808Z,2964.00
2022-10-09T08:10:06.318Z,2932.00
2022-10-09T08:11:05.247Z,2840.00
2022-10-09T08:12:06.831Z,2708.00
2022-10-09T08:13:05.248Z,2636.00
2022-10-09T08:14:05.252Z,2316.00
2022-10-09T08:15:06.327Z,2292.00
2022-10-09T08:16:05.285Z,2596.00
2022-10-09T08:17:05.246Z,2772.00
2022-10-09T08:18:05.247Z,2752.00
2022-10-09T08:19:05.252Z,2748.00
2022-10-09T08:20:06.332Z,2588.00
2022-10-09T08:21:05.243Z,2440.00
2022-10-09T08:22:05.238Z,2404.00
2022-10-09T08:23:05.250Z,2500.00
2022-10-09T08:24:05.242Z,2408.00
2022-10-09T08:25:05.235Z,2492.00
2022-10-09T08:26:06.336Z,2496.00
2022-10-09T08:27:05.241Z,2420.00
2022-10-09T08:28:06.915Z,2596.00
2022-10-09T08:29:05.224Z,2628.00
2022-10-09T08:30:06.836Z,2528.00
2022-10-09T08:31:06.456Z,2560.00
2022-10-09T08:32:06.840Z,2476.00
2022-10-09T08:33:05.221Z,2488.00
2022-10-09T08:34:06.846Z,2460.00
2022-10-09T08:35:06.843Z,2532.00
2022-10-09T08:36:06.834Z,2528.00
2022-10-09T08:37:05.216Z,2540.00
2022-10-09T08:38:06.831Z,2564.00
2022-10-09T08:39:06.850Z,2572.00
2022-10-09T08:40:06.834Z,2548.00
2022-10-09T08:41:06.862Z,2572.00
2022-10-09T08:42:06.835Z,2584.00
2022-10-09T08:43:06.840Z,2668.00
2022-10-09T08:44:06.837Z,2652.00
2022-10-09T08:45:06.840Z,2596.00
2022-10-09T08:46:06.899Z,2636.00
2022-10-09T08:47:06.841Z,2640.00
2022-10-09T08:48:05.220Z,2676.00
2022-10-09T08:49:06.856Z,2724.00
2022-10-09T08:50:06.215Z,2736.00
2022-10-09T08:51:06.243Z,2724.00
2022-10-09T08:52:06.862Z,2744.00
2022-10-09T08:53:06.204Z,2752.00
2022-10-09T08:54:05.203Z,2740.00
2022-10-09T08:55:05.201Z,2700.00
2022-10-09T08:56:05.207Z,2668.00
2022-10-09T08:57:05.202Z,2652.00
2022-10-09T08:58:06.369Z,2624.00
2022-10-09T08:59:06.853Z,2624.00
2022-10-09T09:00:06.863Z,2612.00
2022-10-09T09:01:06.865Z,2544.00
2022-10-09T09:02:06.941Z,2576.00
2022-10-09T09:03:06.897Z,2584.00
2022-10-09T09:04:06.856Z,2592.00
2022-10-09T09:05:06.885Z,2624.00
2022-10-09T09:06:05.192Z,2572.00
2022-10-09T09:07:06.865Z,2584.00
2022-10-09T09:08:06.884Z,2560.00
2022-10-09T09:09:06.865Z,2604.00
2022-10-09T09:10:06.916Z,2664.00
2022-10-09T09:11:06.865Z,2632.00
2022-10-09T09:12:06.891Z,2668.00
2022-10-09T09:13:06.878Z,2624.00
2022-10-09T09:14:06.876Z,2672.00
2022-10-09T09:15:06.885Z,2676.00
2022-10-09T09:16:06.932Z,2712.00
2022-10-09T09:17:06.877Z,2700.00
2022-10-09T09:18:06.896Z,2684.00
2022-10-09T09:19:06.874Z,2684.00
2022-10-09T09:20:06.896Z,2712.00
2022-10-09T09:21:06.889Z,2704.00
2022-10-09T09:22:05.187Z,2744.00
2022-10-09T09:23:06.886Z,2716.00
2022-10-09T09:24:06.886Z,2560.00
2022-10-09T09:25:06.420Z,2576.00
2022-10-09T09:26:06.888Z,2624.00
2022-10-09T09:27:06.913Z,2620.00
2022-10-09T09:28:07.711Z,2580.00
2022-10-09T09:29:05.187Z,2612.00
2022-10-09T09:30:06.196Z,2608.00
2022-10-09T09:31:06.942Z,2632.00
2022-10-09T09:32:06.895Z,2856.00
2022-10-09T09:33:06.900Z,2852.00
2022-10-09T09:34:06.897Z,2864.00
2022-10-09T09:35:06.912Z,2840.00
2022-10-09T09:36:06.886Z,2820.00
2022-10-09T09:37:06.888Z,2836.00
2022-10-09T09:38:06.891Z,2828.00
2022-10-09T09:41:06.915Z,2832.00
2022-10-09T09:42:06.890Z,2864.00
2022-10-09T09:43:06.903Z,2816.00
2022-10-09T09:44:06.182Z,2772.00
2022-10-09T09:45:06.183Z,2756.00
2022-10-09T09:46:06.973Z,2724.00
2022-10-09T09:47:05.182Z,2780.00
2022-10-09T09:48:05.182Z,2804.00
2022-10-09T09:49:09.367Z,2784.00
2022-10-09T09:50:06.426Z,2820.00
2022-10-09T09:51:27.010Z,2848.00
2022-10-09T09:52:06.913Z,2872.00
2022-10-09T09:53:05.192Z,2884.00
2022-10-09T09:54:05.198Z,2892.00
2022-10-09T09:55:05.185Z,2932.00
2022-10-09T09:56:05.188Z,2964.00
2022-10-09T09:57:14.006Z,2972.00
2022-10-09T09:58:05.194Z,2944.00
2022-10-09T09:59:05.178Z,2948.00
2022-10-09T10:00:05.205Z,3000.00
2022-10-09T10:01:05.284Z,2984.00
2022-10-09T10:02:06.968Z,3048.00
2022-10-09T10:13:16.247Z,3368.00
2022-10-09T10:14:16.218Z,3368.00
2022-10-09T10:15:16.214Z,3384.00
2022-10-09T10:16:16.319Z,3400.00
2022-10-09T10:17:16.642Z,3412.00
2022-10-09T10:18:16.244Z,3424.00
2022-10-09T10:19:16.216Z,3396.00
2022-10-09T10:20:16.234Z,3080.00
2022-10-09T10:21:16.226Z,3472.00
2022-10-09T10:22:16.220Z,3492.00
2022-10-09T10:23:16.238Z,3492.00
2022-10-09T10:24:16.228Z,3464.00
2022-10-09T10:25:16.367Z,3472.00
2022-10-09T10:26:16.248Z,3340.00
2022-10-09T10:27:16.226Z,3388.00
2022-10-09T10:28:16.263Z,3376.00
2022-10-09T10:29:16.270Z,3340.00
2022-10-09T10:30:15.627Z,3364.00
2022-10-09T10:31:16.295Z,3528.00
2022-10-09T10:32:16.231Z,3440.00
2022-10-09T10:33:16.244Z,3436.00
2022-10-09T10:34:15.614Z,3400.00
2022-10-09T10:35:16.259Z,3372.00
2022-10-09T10:36:14.620Z,3100.00
2022-10-09T10:37:14.621Z,3056.00
2022-10-09T10:38:14.629Z,3076.00
2022-10-09T10:39:14.617Z,3428.00
2022-10-09T10:40:15.861Z,3516.00
2022-10-09T10:41:14.628Z,3600.00
2022-10-09T10:42:14.627Z,3544.00
2022-10-09T10:43:14.637Z,2928.00
2022-10-09T10:44:14.632Z,2876.00
2022-10-09T10:45:15.780Z,3120.00
2022-10-09T10:46:14.653Z,3704.00
2022-10-09T10:47:14.646Z,3916.00
2022-10-09T10:48:14.642Z,3936.00
2022-10-09T10:49:14.637Z,3816.00
2022-10-09T10:50:15.765Z,3808.00
2022-10-09T10:51:14.641Z,3936.00
2022-10-09T10:52:14.652Z,3856.00
2022-10-09T10:53:15.765Z,3952.00
2022-10-09T10:54:14.646Z,3956.00
2022-10-09T10:55:15.654Z,3996.00
2022-10-09T10:56:16.270Z,3948.00
2022-10-09T10:57:16.288Z,4152.00
2022-10-09T10:58:15.715Z,4200.00
2022-10-09T10:59:15.678Z,4224.00
2022-10-09T11:00:15.686Z,4268.00
2022-10-09T11:02:16.330Z,4284.00
2022-10-09T11:03:14.749Z,4116.00
2022-10-09T11:04:16.273Z,4236.00
2022-10-09T11:05:15.680Z,4272.00
2022-10-09T11:06:16.296Z,4312.00
2022-10-09T11:07:14.674Z,4360.00
2022-10-09T11:08:16.298Z,4476.00
2022-10-09T11:09:14.688Z,4524.00
2022-10-09T11:10:16.349Z,4564.00
2022-10-09T11:11:14.689Z,4616.00
2022-10-09T11:12:30.066Z,4692.00
2022-10-09T11:13:16.282Z,4724.00
2022-10-09T11:14:19.908Z,4768.00
2022-10-09T11:15:16.282Z,4804.00
2022-10-09T11:16:15.784Z,4860.00
2022-10-09T11:17:16.292Z,4972.00
2022-10-09T11:18:15.800Z,5020.00
2022-10-09T11:19:14.706Z,5128.00
2022-10-09T11:20:15.838Z,5200.00
2022-10-09T11:21:15.716Z,5280.00
2022-10-09T11:22:14.743Z,5380.00
2022-10-09T11:23:14.759Z,5428.00
2022-10-09T11:24:14.728Z,5544.00
2022-10-09T11:25:16.306Z,5616.00
2022-10-09T11:26:16.314Z,5676.00
2022-10-09T11:27:16.300Z,5736.00
2022-10-09T11:28:16.363Z,5796.00
2022-10-09T11:29:16.293Z,5888.00
2022-10-09T11:30:16.462Z,5992.00
2022-10-09T11:31:15.880Z,6076.00
2022-10-09T11:32:16.298Z,6152.00
2022-10-09T11:33:16.328Z,6216.00
2022-10-09T11:34:16.307Z,6284.00
2022-10-09T11:35:16.298Z,6336.00
2022-10-09T11:36:16.331Z,6432.00
2022-10-09T11:37:16.317Z,6548.00
2022-10-09T11:38:16.303Z,6620.00
2022-10-09T11:39:16.303Z,6676.00
2022-10-09T11:40:16.313Z,6756.00
2022-10-09T11:41:16.326Z,6964.00
2022-10-09T11:42:16.320Z,6872.00
2022-10-09T11:43:16.322Z,6884.00
2022-10-09T11:44:16.309Z,6992.00
2022-10-09T11:45:16.326Z,7192.00
2022-10-09T11:46:16.384Z,7176.00
2022-10-09T11:47:16.315Z,7388.00
2022-10-09T11:48:16.315Z,7368.00
2022-10-09T11:49:14.817Z,7056.00
2022-10-09T11:50:16.336Z,7304.00
2022-10-09T11:51:14.844Z,6856.00
2022-10-09T11:52:14.833Z,7044.00
2022-10-09T11:53:14.855Z,7948.00
2022-10-09T11:54:16.833Z,8048.00
2022-10-09T11:55:14.852Z,8100.00
2022-10-09T11:56:14.853Z,8280.00
2022-10-09T11:57:15.636Z,8420.00
2022-10-09T11:58:16.833Z,8576.00
2022-10-09T11:59:16.835Z,8728.00
2022-10-09T12:00:16.844Z,8844.00
2022-10-09T12:01:16.925Z,8932.00
2022-10-09T12:02:16.892Z,9044.00
2022-10-09T12:03:16.851Z,9224.00
2022-10-09T12:04:21.009Z,9456.00
2022-10-09T12:05:16.838Z,9608.00
2022-10-09T12:06:16.856Z,9672.00
2022-10-09T12:07:16.844Z,9732.00
2022-10-09T12:08:19.401Z,9824.00
2022-10-09T12:09:16.841Z,9976.00
2022-10-09T12:10:16.851Z,10172.00
2022-10-09T12:11:16.872Z,10372.00
2022-10-09T12:12:16.871Z,10472.00
2022-10-09T12:13:14.936Z,10612.00
2022-10-09T12:14:19.526Z,10664.00
2022-10-09T12:15:14.942Z,10768.00
2022-10-09T12:16:16.932Z,10920.00
2022-10-09T12:17:16.863Z,11048.00
2022-10-09T12:18:14.970Z,11128.00
2022-10-09T12:19:14.962Z,11316.00
2022-10-09T12:20:14.995Z,11516.00
2022-10-09T12:21:14.984Z,11708.00
2022-10-09T12:22:16.879Z,11812.00
2022-10-09T12:23:26.143Z,11892.00
2022-10-09T12:24:14.991Z,12160.00
2022-10-09T12:25:14.999Z,12420.00
2022-10-09T12:26:15.005Z,12600.00
2022-10-09T12:27:16.877Z,12708.00
2022-10-09T12:28:16.973Z,13084.00
2022-10-09T12:29:16.025Z,13644.00
2022-10-09T12:30:16.377Z,14168.00
2022-10-09T12:31:16.075Z,15952.00
2022-10-09T12:32:15.039Z,39936.00
2022-10-09T12:33:16.058Z,69408.00
2022-10-09T12:34:16.387Z,60384.00
2022-10-09T12:35:16.068Z,56896.00
2022-10-09T12:36:16.885Z,57440.00
2022-10-09T12:37:15.069Z,54816.00
2022-10-09T12:38:16.965Z,54144.00
2022-10-09T12:39:16.386Z,49696.00
2022-10-09T12:40:15.112Z,32096.00
2022-10-09T12:41:20.193Z,17824.00
2022-10-09T12:42:16.932Z,16004.00
2022-10-09T12:43:16.112Z,15116.00
2022-10-09T12:44:16.887Z,14996.00
2022-10-09T12:45:16.898Z,15092.00
2022-10-09T12:46:16.963Z,16988.00
2022-10-09T12:47:16.900Z,21600.00
2022-10-09T12:48:17.148Z,40480.00
2022-10-09T12:49:16.907Z,57248.00
2022-10-09T12:50:16.896Z,58944.00
2022-10-09T12:51:16.890Z,61088.00
2022-10-09T12:52:15.173Z,62080.00
2022-10-09T12:53:16.948Z,63648.00
2022-10-09T12:54:16.921Z,53792.00
2022-10-09T12:55:15.181Z,26880.00
2022-10-09T12:56:16.906Z,19040.00
2022-10-09T12:57:16.910Z,23040.00
2022-10-09T12:58:16.209Z,45760.00
2022-10-09T12:59:16.220Z,61984.00
2022-10-09T13:00:16.934Z,63520.00
2022-10-09T13:01:17.032Z,64960.00
2022-10-09T13:02:17.053Z,65728.00
2022-10-09T13:03:16.925Z,65184.00
2022-10-09T13:04:16.905Z,60960.00
2022-10-09T13:05:16.930Z,61056.00
2022-10-09T13:06:16.916Z,63872.00
2022-10-09T13:07:16.906Z,65120.00
2022-10-09T13:08:16.949Z,64160.00
2022-10-09T13:09:16.918Z,64064.00
2022-10-09T13:10:16.958Z,63360.00
2022-10-09T13:11:16.921Z,63072.00
2022-10-09T13:12:16.914Z,63008.00
2022-10-09T13:13:16.920Z,62368.00
2022-10-09T13:14:16.434Z,63808.00
2022-10-09T13:15:18.907Z,63808.00
2022-10-09T13:16:16.991Z,62912.00
2022-10-09T13:17:15.338Z,62272.00
2022-10-09T13:18:16.438Z,63232.00
2022-10-09T13:19:15.379Z,64576.00
2022-10-09T13:20:16.945Z,66208.00
2022-10-09T13:21:15.384Z,64544.00
2022-10-09T13:22:15.375Z,62016.00
2022-10-09T13:23:15.410Z,59552.00
2022-10-09T13:24:16.943Z,57728.00
2022-10-09T13:25:15.412Z,56832.00
2022-10-09T13:26:16.966Z,54752.00
2022-10-09T13:27:15.420Z,53696.00
2022-10-09T13:28:15.460Z,52640.00
2022-10-09T13:29:15.427Z,52000.00
2022-10-09T13:30:15.467Z,54432.00
2022-10-09T13:31:17.486Z,55616.00
2022-10-09T13:32:17.438Z,48864.00
2022-10-09T13:33:16.476Z,52320.00
2022-10-09T13:34:17.442Z,54560.00
2022-10-09T13:35:17.476Z,55072.00
2022-10-09T13:36:17.450Z,55648.00
2022-10-09T13:37:17.443Z,57120.00
2022-10-09T13:38:17.485Z,58112.00
2022-10-09T13:39:16.529Z,57152.00
2022-10-09T13:40:17.488Z,56192.00
2022-10-09T13:41:16.529Z,55392.00
2022-10-09T13:42:17.460Z,55808.00
2022-10-09T13:43:17.482Z,55936.00
2022-10-09T13:44:17.458Z,55872.00
2022-10-09T13:45:17.492Z,57248.00
2022-10-09T13:46:17.531Z,58336.00
2022-10-09T13:47:21.991Z,59392.00
2022-10-09T13:48:17.463Z,59040.00
2022-10-09T13:49:17.459Z,57376.00
2022-10-09T13:50:17.504Z,56672.00
2022-10-09T13:51:17.470Z,55168.00
2022-10-09T13:52:17.472Z,53632.00
2022-10-09T13:53:17.466Z,55296.00
2022-10-09T13:54:17.502Z,55520.00
2022-10-09T13:55:17.474Z,56128.00
2022-10-09T13:56:17.484Z,56992.00
2022-10-09T13:57:17.471Z,56864.00
2022-10-09T13:58:16.662Z,55648.00
2022-10-09T13:59:16.985Z,55456.00
2022-10-09T14:00:17.527Z,55712.00
2022-10-09T14:01:16.727Z,56000.00
2022-10-09T14:02:15.683Z,55488.00
2022-10-09T14:03:17.478Z,55744.00
2022-10-09T14:04:17.481Z,54016.00
2022-10-09T14:05:16.713Z,52608.00
2022-10-09T14:06:17.006Z,54624.00
2022-10-09T14:07:15.725Z,53408.00
2022-10-09T14:08:15.730Z,50624.00
2022-10-09T14:09:17.503Z,51424.00
2022-10-09T14:10:21.734Z,51328.00
2022-10-09T14:11:15.752Z,51040.00
2022-10-09T14:12:17.515Z,48928.00
2022-10-09T14:13:17.508Z,48352.00
2022-10-09T14:14:16.808Z,47488.00
2022-10-09T14:15:16.783Z,48928.00
2022-10-09T14:16:17.504Z,47168.00
2022-10-09T14:17:15.807Z,46272.00
2022-10-09T14:18:17.542Z,46752.00
2022-10-09T14:19:15.819Z,46656.00
2022-10-09T14:20:17.011Z,45888.00
2022-10-09T14:21:16.023Z,45184.00
2022-10-09T14:22:17.507Z,44576.00
2022-10-09T14:23:17.531Z,44192.00
2022-10-09T14:24:16.860Z,43072.00
2022-10-09T14:25:15.857Z,43968.00
2022-10-09T14:26:17.509Z,42944.00
2022-10-09T14:27:17.508Z,41216.00
2022-10-09T14:28:17.634Z,39904.00
2022-10-09T14:29:16.884Z,39232.00
2022-10-09T14:30:16.917Z,38400.00
2022-10-09T14:31:17.026Z,37920.00
2022-10-09T14:32:15.911Z,36448.00
2022-10-09T14:33:17.522Z,36032.00
2022-10-09T14:34:17.517Z,37088.00
2022-10-09T14:35:20.602Z,37152.00
2022-10-09T14:36:17.534Z,37312.00
2022-10-09T14:37:36.783Z,37376.00
2022-10-09T14:38:17.567Z,38240.00
2022-10-09T14:39:17.523Z,36704.00
2022-10-09T14:40:17.551Z,34976.00
2022-10-09T14:41:17.541Z,33824.00
2022-10-09T14:42:17.528Z,34080.00
2022-10-09T14:43:17.546Z,33024.00
2022-10-09T14:44:17.532Z,31392.00
2022-10-09T14:45:17.560Z,30464.00
2022-10-09T14:46:17.583Z,27968.00
2022-10-09T14:47:17.542Z,22240.00
2022-10-09T14:48:17.538Z,20832.00
2022-10-09T14:49:17.047Z,22720.00
2022-10-09T14:50:17.549Z,23456.00
2022-10-09T14:51:17.572Z,24608.00
2022-10-09T14:52:17.538Z,24800.00
2022-10-09T14:53:17.544Z,21792.00
2022-10-09T14:54:17.547Z,10228.00
2022-10-09T14:55:17.610Z,3748.00
2022-10-09T14:56:18.558Z,3464.00
2022-10-09T14:57:17.545Z,3272.00
2022-10-09T14:58:18.050Z,3124.00
2022-10-09T14:59:17.080Z,2996.00
2022-10-09T15:00:16.067Z,2864.00
2022-10-09T15:01:16.182Z,2716.00
2022-10-09T15:02:18.077Z,2656.00
2022-10-09T15:03:16.077Z,2572.00
2022-10-09T15:04:16.180Z,2472.00
2022-10-09T15:05:16.087Z,2400.00
2022-10-09T15:06:18.087Z,2324.00
2022-10-09T15:07:18.059Z,2252.00
2022-10-09T15:08:17.097Z,2188.00
2022-10-09T15:09:18.062Z,2144.00
2022-10-09T15:10:18.094Z,2112.00
2022-10-09T15:11:18.186Z,2068.00
2022-10-09T15:12:18.085Z,2000.00
2022-10-09T15:13:18.063Z,1912.00
2022-10-09T15:14:18.093Z,1852.00
2022-10-09T15:15:18.062Z,1796.00
2022-10-09T15:16:18.125Z,1728.00
2022-10-09T15:17:18.070Z,1640.00
2022-10-09T15:18:18.098Z,1556.00
2022-10-09T15:19:18.107Z,1548.00
2022-10-09T15:20:18.102Z,1532.00
2022-10-09T15:21:18.091Z,1524.00
2022-10-09T15:22:18.092Z,1496.00
2022-10-09T15:23:18.085Z,1468.00
2022-10-09T15:24:18.074Z,1448.00
2022-10-09T15:25:18.088Z,1440.00
2022-10-09T15:26:18.084Z,1396.00
2022-10-09T15:27:18.100Z,1400.00
2022-10-09T15:28:18.124Z,1408.00
2022-10-09T15:29:18.082Z,1412.00
2022-10-09T15:30:16.147Z,1416.00
2022-10-09T15:31:16.155Z,1404.00
2022-10-09T15:32:18.094Z,1400.00
2022-10-09T15:33:18.096Z,1392.00
2022-10-09T15:34:16.249Z,1380.00
2022-10-09T15:35:16.151Z,1364.00
2022-10-09T15:36:16.150Z,1344.00
2022-10-09T15:37:18.106Z,1324.00
2022-10-09T15:38:16.144Z,1296.00
2022-10-09T15:39:17.148Z,1272.00
2022-10-09T15:40:17.151Z,1256.00
2022-10-09T15:41:18.114Z,1236.00
2022-10-09T15:42:16.145Z,1196.00
2022-10-09T15:43:17.148Z,1168.00
2022-10-09T15:44:16.154Z,1140.00
2022-10-09T15:45:17.147Z,1112.00
2022-10-09T15:46:18.113Z,1096.00
2022-10-09T15:47:16.753Z,1080.00
2022-10-09T15:48:16.143Z,1068.00
2022-10-09T15:49:18.119Z,1064.00
2022-10-09T15:50:17.169Z,1048.00
2022-10-09T15:51:18.117Z,1032.00
2022-10-09T15:52:16.153Z,1028.00
2022-10-09T15:53:18.134Z,1020.00
2022-10-09T15:54:17.617Z,1012.00
2022-10-09T15:55:16.141Z,996.00
2022-10-09T15:56:16.154Z,980.00
2022-10-09T15:57:18.126Z,972.00
2022-10-09T15:58:17.149Z,956.00
2022-10-09T15:59:18.108Z,936.00
2022-10-09T16:00:18.111Z,904.00
2022-10-09T16:12:25.485Z,668.00
2022-10-09T16:13:25.460Z,648.00
2022-10-09T16:14:25.467Z,632.00
2022-10-09T16:15:25.443Z,612.00
2022-10-09T16:16:25.437Z,592.00
2022-10-09T16:17:23.822Z,572.00
2022-10-09T16:18:25.479Z,552.00
2022-10-09T16:19:23.823Z,532.00
2022-10-09T16:20:25.458Z,512.00
2022-10-09T16:21:24.814Z,492.00
2022-10-09T16:22:23.817Z,472.00
2022-10-09T16:23:23.811Z,452.00
2022-10-09T16:24:25.443Z,432.00
2022-10-09T16:25:23.810Z,412.00
2022-10-09T16:26:25.456Z,392.00
2022-10-09T16:27:23.804Z,372.00
2022-10-09T16:28:23.876Z,356.00
2022-10-09T16:29:24.958Z,336.00
2022-10-09T16:30:23.805Z,320.00
2022-10-09T16:31:23.831Z,304.00
2022-10-09T16:32:25.463Z,284.00
2022-10-09T16:33:23.792Z,268.00
2022-10-09T16:34:23.808Z,252.00
2022-10-09T16:35:24.792Z,240.00